sensor_id;sensor_type;location;lat;lon;timestamp;temperature;humidity
8214;DHT22;4148;47.974;7.824;2022-08-04T00:00:04;22.70;99.90
8214;DHT22;4148;47.974;7.824;2022-08-04T00:02:47;22.70;99.90
8214;DHT22;4148;47.974;7.824;2022-08-04T00:05:27;22.60;99.90
8214;DHT22;4148;47.974;7.824;2022-08-04T00:08:10;22.50;99.90
8214;DHT22;4148;47.974;7.824;2022-08-04T00:10:42;22.50;99.90
8214;DHT22;4148;47.974;7.824;2022-08-04T00:13:11;22.50;99.90
8214;DHT22;4148;47.974;7.824;2022-08-04T00:15:39;22.40;99.90
8214;DHT22;4148;47.974;7.824;2022-08-04T00:18:09;22.40;99.90
8214;DHT22;4148;47.974;7.824;2022-08-04T00:20:38;22.40;99.90
8214;DHT22;4148;47.974;7.824;2022-08-04T00:23:08;22.40;99.90
8214;DHT22;4148;47.974;7.824;2022-08-04T00:25:39;22.40;99.90
8214;DHT22;4148;47.974;7.824;2022-08-04T00:28:08;22.40;99.90
8214;DHT22;4148;47.974;7.824;2022-08-04T00:30:35;22.40;99.90
8214;DHT22;4148;47.974;7.824;2022-08-04T00:33:03;22.40;99.90
8214;DHT22;4148;47.974;7.824;2022-08-04T00:35:32;22.30;99.90
8214;DHT22;4148;47.974;7.824;2022-08-04T00:38:00;22.20;99.90
8214;DHT22;4148;47.974;7.824;2022-08-04T00:40:33;22.10;99.90
8214;DHT22;4148;47.974;7.824;2022-08-04T00:43:12;22.10;99.90
8214;DHT22;4148;47.974;7.824;2022-08-04T00:46:07;22.10;99.90
8214;DHT22;4148;47.974;7.824;2022-08-04T00:51:47;22.30;99.90
8214;DHT22;4148;47.974;7.824;2022-08-04T00:54:45;22.20;99.90
8214;DHT22;4148;47.974;7.824;2022-08-04T00:57:29;22.20;99.90
8214;DHT22;4148;47.974;7.824;2022-08-04T01:00:07;22.10;99.90
8214;DHT22;4148;47.974;7.824;2022-08-04T01:02:42;22.10;99.90
8214;DHT22;4148;47.974;7.824;2022-08-04T01:05:20;22.10;99.90
8214;DHT22;4148;47.974;7.824;2022-08-04T01:08:09;22.00;99.90
8214;DHT22;4148;47.974;7.824;2022-08-04T01:10:47;22.00;99.90
8214;DHT22;4148;47.974;7.824;2022-08-04T01:13:41;21.90;99.90
8214;DHT22;4148;47.974;7.824;2022-08-04T01:16:17;21.90;99.90
8214;DHT22;4148;47.974;7.824;2022-08-04T01:18:56;21.80;99.90
8214;DHT22;4148;47.974;7.824;2022-08-04T01:21:54;21.70;99.90
8214;DHT22;4148;47.974;7.824;2022-08-04T01:24:44;21.80;99.90
8214;DHT22;4148;47.974;7.824;2022-08-04T01:27:26;21.60;99.90
8214;DHT22;4148;47.974;7.824;2022-08-04T01:29:58;21.50;99.90
8214;DHT22;4148;47.974;7.824;2022-08-04T01:32:31;21.50;99.90
8214;DHT22;4148;47.974;7.824;2022-08-04T01:35:02;21.50;99.90
8214;DHT22;4148;47.974;7.824;2022-08-04T01:37:46;21.40;99.90
8214;DHT22;4148;47.974;7.824;2022-08-04T01:40:16;21.40;99.90
8214;DHT22;4148;47.974;7.824;2022-08-04T01:42:44;21.40;99.90
8214;DHT22;4148;47.974;7.824;2022-08-04T01:45:13;21.40;99.90
8214;DHT22;4148;47.974;7.824;2022-08-04T01:47:42;21.40;99.90
8214;DHT22;4148;47.974;7.824;2022-08-04T01:50:15;21.40;99.90
8214;DHT22;4148;47.974;7.824;2022-08-04T01:52:44;21.50;99.90
8214;DHT22;4148;47.974;7.824;2022-08-04T01:55:17;21.70;99.90
8214;DHT22;4148;47.974;7.824;2022-08-04T01:57:50;21.60;99.90
8214;DHT22;4148;47.974;7.824;2022-08-04T02:00:22;21.50;99.90
8214;DHT22;4148;47.974;7.824;2022-08-04T02:02:53;21.50;99.90
8214;DHT22;4148;47.974;7.824;2022-08-04T02:05:24;21.60;99.90
8214;DHT22;4148;47.974;7.824;2022-08-04T02:08:18;21.80;99.90
8214;DHT22;4148;47.974;7.824;2022-08-04T02:10:59;21.80;99.90
8214;DHT22;4148;47.974;7.824;2022-08-04T02:13:34;21.90;99.90
8214;DHT22;4148;47.974;7.824;2022-08-04T02:16:12;22.00;99.90
8214;DHT22;4148;47.974;7.824;2022-08-04T02:18:47;22.10;99.90
8214;DHT22;4148;47.974;7.824;2022-08-04T02:21:19;22.10;99.90
8214;DHT22;4148;47.974;7.824;2022-08-04T02:23:53;22.10;99.90
8214;DHT22;4148;47.974;7.824;2022-08-04T02:26:21;22.20;99.90
8214;DHT22;4148;47.974;7.824;2022-08-04T02:28:58;22.20;99.90
8214;DHT22;4148;47.974;7.824;2022-08-04T02:31:32;22.20;99.90
8214;DHT22;4148;47.974;7.824;2022-08-04T02:34:05;22.20;99.90
8214;DHT22;4148;47.974;7.824;2022-08-04T02:36:35;22.10;99.90
8214;DHT22;4148;47.974;7.824;2022-08-04T02:39:05;22.00;99.90
8214;DHT22;4148;47.974;7.824;2022-08-04T02:41:34;21.90;99.90
8214;DHT22;4148;47.974;7.824;2022-08-04T02:44:05;21.80;99.90
8214;DHT22;4148;47.974;7.824;2022-08-04T02:46:35;21.80;99.90
8214;DHT22;4148;47.974;7.824;2022-08-04T02:49:05;21.70;99.90
8214;DHT22;4148;47.974;7.824;2022-08-04T02:51:35;21.70;99.90
8214;DHT22;4148;47.974;7.824;2022-08-04T02:54:05;21.90;99.90
8214;DHT22;4148;47.974;7.824;2022-08-04T02:56:35;21.90;99.90
8214;DHT22;4148;47.974;7.824;2022-08-04T02:59:06;22.00;99.90
8214;DHT22;4148;47.974;7.824;2022-08-04T03:01:36;22.00;99.90
8214;DHT22;4148;47.974;7.824;2022-08-04T03:04:37;22.00;99.90
8214;DHT22;4148;47.974;7.824;2022-08-04T03:07:38;21.80;99.90
8214;DHT22;4148;47.974;7.824;2022-08-04T03:10:48;21.60;99.90
8214;DHT22;4148;47.974;7.824;2022-08-04T03:16:33;21.30;99.90
8214;DHT22;4148;47.974;7.824;2022-08-04T03:19:53;21.30;99.90
8214;DHT22;4148;47.974;7.824;2022-08-04T03:22:58;21.30;99.90
8214;DHT22;4148;47.974;7.824;2022-08-04T03:26:07;21.30;99.90
8214;DHT22;4148;47.974;7.824;2022-08-04T03:29:09;21.10;99.90
8214;DHT22;4148;47.974;7.824;2022-08-04T03:32:45;21.00;99.90
8214;DHT22;4148;47.974;7.824;2022-08-04T03:35:33;21.10;99.90
8214;DHT22;4148;47.974;7.824;2022-08-04T03:38:37;21.10;99.90
8214;DHT22;4148;47.974;7.824;2022-08-04T03:41:32;21.10;99.90
8214;DHT22;4148;47.974;7.824;2022-08-04T03:44:56;21.10;99.90
8214;DHT22;4148;47.974;7.824;2022-08-04T03:48:07;21.00;99.90
8214;DHT22;4148;47.974;7.824;2022-08-04T03:54:42;21.00;99.90
8214;DHT22;4148;47.974;7.824;2022-08-04T04:00:21;20.90;99.90
8214;DHT22;4148;47.974;7.824;2022-08-04T04:03:06;21.00;99.90
8214;DHT22;4148;47.974;7.824;2022-08-04T04:06:07;20.90;99.90
8214;DHT22;4148;47.974;7.824;2022-08-04T04:09:02;20.90;99.90
8214;DHT22;4148;47.974;7.824;2022-08-04T04:12:15;20.90;99.90
8214;DHT22;4148;47.974;7.824;2022-08-04T04:15:06;21.00;99.90
8214;DHT22;4148;47.974;7.824;2022-08-04T04:20:55;20.90;99.90
8214;DHT22;4148;47.974;7.824;2022-08-04T04:23:36;20.70;1.00
8214;DHT22;4148;47.974;7.824;2022-08-04T04:26:26;20.80;1.00
8214;DHT22;4148;47.974;7.824;2022-08-04T04:29:18;20.70;1.00
8214;DHT22;4148;47.974;7.824;2022-08-04T04:31:58;20.60;32.70
8214;DHT22;4148;47.974;7.824;2022-08-04T04:34:48;20.50;45.70
8214;DHT22;4148;47.974;7.824;2022-08-04T04:37:24;20.50;99.90
8214;DHT22;4148;47.974;7.824;2022-08-04T04:40:02;20.50;1.00
8214;DHT22;4148;47.974;7.824;2022-08-04T04:42:43;20.50;4.60
8214;DHT22;4148;47.974;7.824;2022-08-04T04:45:24;20.50;1.00
8214;DHT22;4148;47.974;7.824;2022-08-04T04:47:56;20.70;1.00
8214;DHT22;4148;47.974;7.824;2022-08-04T04:50:44;20.80;99.90
8214;DHT22;4148;47.974;7.824;2022-08-04T04:53:19;20.80;99.90
8214;DHT22;4148;47.974;7.824;2022-08-04T04:55:55;20.90;99.90
8214;DHT22;4148;47.974;7.824;2022-08-04T04:58:25;20.80;99.90
8214;DHT22;4148;47.974;7.824;2022-08-04T05:01:07;20.80;1.00
8214;DHT22;4148;47.974;7.824;2022-08-04T05:03:51;20.90;99.90
8214;DHT22;4148;47.974;7.824;2022-08-04T05:06:41;20.90;1.00
8214;DHT22;4148;47.974;7.824;2022-08-04T05:09:35;20.90;1.00
8214;DHT22;4148;47.974;7.824;2022-08-04T05:12:34;20.80;1.00
8214;DHT22;4148;47.974;7.824;2022-08-04T05:15:29;20.80;1.00
8214;DHT22;4148;47.974;7.824;2022-08-04T05:18:01;20.80;99.90
8214;DHT22;4148;47.974;7.824;2022-08-04T05:20:34;20.80;33.10
8214;DHT22;4148;47.974;7.824;2022-08-04T05:23:10;20.90;1.00
8214;DHT22;4148;47.974;7.824;2022-08-04T05:25:42;20.80;99.90
8214;DHT22;4148;47.974;7.824;2022-08-04T05:28:28;20.90;99.90
8214;DHT22;4148;47.974;7.824;2022-08-04T05:31:03;20.80;99.90
8214;DHT22;4148;47.974;7.824;2022-08-04T05:33:39;20.90;80.20
8214;DHT22;4148;47.974;7.824;2022-08-04T05:36:12;20.90;99.90
8214;DHT22;4148;47.974;7.824;2022-08-04T05:38:59;21.10;99.90
8214;DHT22;4148;47.974;7.824;2022-08-04T05:41:29;21.10;99.90
8214;DHT22;4148;47.974;7.824;2022-08-04T05:44:21;21.20;1.00
8214;DHT22;4148;47.974;7.824;2022-08-04T05:46:51;21.30;1.00
8214;DHT22;4148;47.974;7.824;2022-08-04T05:49:23;21.40;8.10
8214;DHT22;4148;47.974;7.824;2022-08-04T05:51:54;21.50;99.90
8214;DHT22;4148;47.974;7.824;2022-08-04T05:54:23;21.40;99.90
8214;DHT22;4148;47.974;7.824;2022-08-04T05:56:52;21.50;99.90
8214;DHT22;4148;47.974;7.824;2022-08-04T05:59:22;21.50;99.90
8214;DHT22;4148;47.974;7.824;2022-08-04T06:01:53;21.60;99.90
8214;DHT22;4148;47.974;7.824;2022-08-04T06:04:27;21.60;99.90
8214;DHT22;4148;47.974;7.824;2022-08-04T06:06:57;21.70;99.90
8214;DHT22;4148;47.974;7.824;2022-08-04T06:09:25;21.70;99.90
8214;DHT22;4148;47.974;7.824;2022-08-04T06:11:55;21.80;99.90
8214;DHT22;4148;47.974;7.824;2022-08-04T06:14:32;21.90;46.50
8214;DHT22;4148;47.974;7.824;2022-08-04T06:17:05;22.00;1.00
8214;DHT22;4148;47.974;7.824;2022-08-04T06:19:55;22.10;1.00
8214;DHT22;4148;47.974;7.824;2022-08-04T06:22:46;22.20;1.00
8214;DHT22;4148;47.974;7.824;2022-08-04T06:25:17;22.30;1.00
8214;DHT22;4148;47.974;7.824;2022-08-04T06:27:47;22.30;1.00
8214;DHT22;4148;47.974;7.824;2022-08-04T06:30:16;22.40;1.00
8214;DHT22;4148;47.974;7.824;2022-08-04T06:32:47;22.50;1.00
8214;DHT22;4148;47.974;7.824;2022-08-04T06:35:32;22.60;1.00
8214;DHT22;4148;47.974;7.824;2022-08-04T06:38:00;22.70;1.00
8214;DHT22;4148;47.974;7.824;2022-08-04T06:40:29;22.80;1.00
8214;DHT22;4148;47.974;7.824;2022-08-04T06:43:01;22.90;1.00
8214;DHT22;4148;47.974;7.824;2022-08-04T06:45:30;22.90;1.00
8214;DHT22;4148;47.974;7.824;2022-08-04T06:48:01;23.00;1.00
8214;DHT22;4148;47.974;7.824;2022-08-04T06:50:31;23.20;1.00
8214;DHT22;4148;47.974;7.824;2022-08-04T06:53:20;23.30;99.90
8214;DHT22;4148;47.974;7.824;2022-08-04T06:55:49;23.40;99.90
8214;DHT22;4148;47.974;7.824;2022-08-04T06:58:19;23.50;99.90
8214;DHT22;4148;47.974;7.824;2022-08-04T07:00:48;23.60;99.90
8214;DHT22;4148;47.974;7.824;2022-08-04T07:03:18;23.70;99.90
8214;DHT22;4148;47.974;7.824;2022-08-04T07:05:49;23.90;99.90
8214;DHT22;4148;47.974;7.824;2022-08-04T07:08:18;24.20;99.90
8214;DHT22;4148;47.974;7.824;2022-08-04T07:10:46;24.30;99.90
8214;DHT22;4148;47.974;7.824;2022-08-04T07:13:14;24.50;99.90
8214;DHT22;4148;47.974;7.824;2022-08-04T07:15:44;24.60;99.90
8214;DHT22;4148;47.974;7.824;2022-08-04T07:18:13;24.80;99.90
8214;DHT22;4148;47.974;7.824;2022-08-04T07:20:41;24.90;99.90
8214;DHT22;4148;47.974;7.824;2022-08-04T07:23:11;25.10;99.90
8214;DHT22;4148;47.974;7.824;2022-08-04T07:25:43;25.30;99.90
8214;DHT22;4148;47.974;7.824;2022-08-04T07:28:36;25.40;99.90
8214;DHT22;4148;47.974;7.824;2022-08-04T07:31:04;25.70;99.90
8214;DHT22;4148;47.974;7.824;2022-08-04T07:33:33;25.90;99.90
8214;DHT22;4148;47.974;7.824;2022-08-04T07:36:01;26.00;99.90
8214;DHT22;4148;47.974;7.824;2022-08-04T07:38:38;26.10;99.90
8214;DHT22;4148;47.974;7.824;2022-08-04T07:41:20;26.30;99.90
8214;DHT22;4148;47.974;7.824;2022-08-04T07:44:04;26.50;99.90
8214;DHT22;4148;47.974;7.824;2022-08-04T07:46:33;26.70;99.90
8214;DHT22;4148;47.974;7.824;2022-08-04T07:49:01;26.80;99.90
8214;DHT22;4148;47.974;7.824;2022-08-04T07:51:30;27.10;99.90
8214;DHT22;4148;47.974;7.824;2022-08-04T07:54:03;27.20;99.90
8214;DHT22;4148;47.974;7.824;2022-08-04T07:56:31;27.40;99.90
8214;DHT22;4148;47.974;7.824;2022-08-04T07:59:00;27.70;99.90
8214;DHT22;4148;47.974;7.824;2022-08-04T08:01:28;27.90;99.90
8214;DHT22;4148;47.974;7.824;2022-08-04T08:03:57;28.30;99.90
8214;DHT22;4148;47.974;7.824;2022-08-04T08:06:26;28.50;99.90
8214;DHT22;4148;47.974;7.824;2022-08-04T08:08:59;28.90;99.90
8214;DHT22;4148;47.974;7.824;2022-08-04T08:11:41;29.50;99.90
8214;DHT22;4148;47.974;7.824;2022-08-04T08:14:30;30.20;99.90
8214;DHT22;4148;47.974;7.824;2022-08-04T08:17:01;31.00;99.90
8214;DHT22;4148;47.974;7.824;2022-08-04T08:19:29;31.60;99.90
8214;DHT22;4148;47.974;7.824;2022-08-04T08:21:58;32.20;99.90
8214;DHT22;4148;47.974;7.824;2022-08-04T08:24:28;32.80;99.90
8214;DHT22;4148;47.974;7.824;2022-08-04T08:26:58;33.00;99.90
8214;DHT22;4148;47.974;7.824;2022-08-04T08:29:28;33.50;99.90
8214;DHT22;4148;47.974;7.824;2022-08-04T08:31:56;34.00;99.90
8214;DHT22;4148;47.974;7.824;2022-08-04T08:34:33;34.50;99.90
8214;DHT22;4148;47.974;7.824;2022-08-04T08:37:07;34.70;99.90
8214;DHT22;4148;47.974;7.824;2022-08-04T08:39:40;35.00;99.90
8214;DHT22;4148;47.974;7.824;2022-08-04T08:42:30;35.50;99.90
8214;DHT22;4148;47.974;7.824;2022-08-04T08:45:23;35.80;99.90
8214;DHT22;4148;47.974;7.824;2022-08-04T08:48:10;36.10;99.90
8214;DHT22;4148;47.974;7.824;2022-08-04T08:51:08;36.10;99.90
8214;DHT22;4148;47.974;7.824;2022-08-04T08:53:51;36.40;99.90
8214;DHT22;4148;47.974;7.824;2022-08-04T08:56:30;36.50;99.90
8214;DHT22;4148;47.974;7.824;2022-08-04T08:59:15;37.00;99.90
8214;DHT22;4148;47.974;7.824;2022-08-04T09:02:13;37.40;99.90
8214;DHT22;4148;47.974;7.824;2022-08-04T09:05:05;37.70;99.90
8214;DHT22;4148;47.974;7.824;2022-08-04T09:07:53;38.00;99.90
8214;DHT22;4148;47.974;7.824;2022-08-04T09:10:27;38.30;99.90
8214;DHT22;4148;47.974;7.824;2022-08-04T09:13:03;38.60;99.90
8214;DHT22;4148;47.974;7.824;2022-08-04T09:15:39;38.50;99.90
8214;DHT22;4148;47.974;7.824;2022-08-04T09:18:16;38.40;99.90
8214;DHT22;4148;47.974;7.824;2022-08-04T09:20:47;38.60;99.90
8214;DHT22;4148;47.974;7.824;2022-08-04T09:23:25;38.50;99.90
8214;DHT22;4148;47.974;7.824;2022-08-04T09:26:00;38.50;99.90
8214;DHT22;4148;47.974;7.824;2022-08-04T09:28:42;38.70;99.90
8214;DHT22;4148;47.974;7.824;2022-08-04T09:31:26;38.50;99.90
8214;DHT22;4148;47.974;7.824;2022-08-04T09:34:25;38.50;99.90
8214;DHT22;4148;47.974;7.824;2022-08-04T09:37:03;38.70;99.90
8214;DHT22;4148;47.974;7.824;2022-08-04T09:39:46;38.80;99.90
8214;DHT22;4148;47.974;7.824;2022-08-04T09:42:24;39.00;99.90
8214;DHT22;4148;47.974;7.824;2022-08-04T09:45:02;39.40;99.90
8214;DHT22;4148;47.974;7.824;2022-08-04T09:47:37;39.60;99.90
8214;DHT22;4148;47.974;7.824;2022-08-04T09:50:15;39.60;99.90
8214;DHT22;4148;47.974;7.824;2022-08-04T09:52:53;39.60;99.90
8214;DHT22;4148;47.974;7.824;2022-08-04T09:55:33;39.90;99.90
8214;DHT22;4148;47.974;7.824;2022-08-04T09:58:27;39.80;99.90
8214;DHT22;4148;47.974;7.824;2022-08-04T10:01:01;40.10;99.90
8214;DHT22;4148;47.974;7.824;2022-08-04T10:03:34;40.10;99.90
8214;DHT22;4148;47.974;7.824;2022-08-04T10:06:10;40.10;99.90
8214;DHT22;4148;47.974;7.824;2022-08-04T10:08:55;40.20;99.90
8214;DHT22;4148;47.974;7.824;2022-08-04T10:11:39;40.10;99.90
8214;DHT22;4148;47.974;7.824;2022-08-04T10:14:39;40.30;99.90
8214;DHT22;4148;47.974;7.824;2022-08-04T10:17:20;40.30;99.90
8214;DHT22;4148;47.974;7.824;2022-08-04T10:20:05;40.40;99.90
8214;DHT22;4148;47.974;7.824;2022-08-04T10:22:36;40.60;99.90
8214;DHT22;4148;47.974;7.824;2022-08-04T10:25:33;40.60;99.90
8214;DHT22;4148;47.974;7.824;2022-08-04T10:28:27;40.20;99.90
8214;DHT22;4148;47.974;7.824;2022-08-04T10:31:00;39.90;99.90
8214;DHT22;4148;47.974;7.824;2022-08-04T10:33:36;40.20;99.90
8214;DHT22;4148;47.974;7.824;2022-08-04T10:36:08;40.60;99.90
8214;DHT22;4148;47.974;7.824;2022-08-04T10:38:44;40.60;99.90
8214;DHT22;4148;47.974;7.824;2022-08-04T10:41:29;40.40;99.90
8214;DHT22;4148;47.974;7.824;2022-08-04T10:44:07;40.30;99.90
8214;DHT22;4148;47.974;7.824;2022-08-04T10:46:43;40.30;99.90
8214;DHT22;4148;47.974;7.824;2022-08-04T10:49:20;40.50;99.90
8214;DHT22;4148;47.974;7.824;2022-08-04T10:51:54;40.20;99.90
8214;DHT22;4148;47.974;7.824;2022-08-04T10:54:30;40.30;99.90
8214;DHT22;4148;47.974;7.824;2022-08-04T10:57:04;40.60;99.90
8214;DHT22;4148;47.974;7.824;2022-08-04T10:59:38;40.60;99.90
8214;DHT22;4148;47.974;7.824;2022-08-04T11:02:17;40.60;99.90
8214;DHT22;4148;47.974;7.824;2022-08-04T11:04:50;40.90;99.90
8214;DHT22;4148;47.974;7.824;2022-08-04T11:07:24;41.00;99.90
8214;DHT22;4148;47.974;7.824;2022-08-04T11:09:52;41.10;99.90
8214;DHT22;4148;47.974;7.824;2022-08-04T11:12:24;41.30;99.90
8214;DHT22;4148;47.974;7.824;2022-08-04T11:14:57;41.20;99.90
8214;DHT22;4148;47.974;7.824;2022-08-04T11:17:30;40.90;99.90
8214;DHT22;4148;47.974;7.824;2022-08-04T11:20:06;40.90;99.90
8214;DHT22;4148;47.974;7.824;2022-08-04T11:23:03;41.00;99.90
8214;DHT22;4148;47.974;7.824;2022-08-04T11:25:39;40.50;99.90
8214;DHT22;4148;47.974;7.824;2022-08-04T11:28:13;40.20;99.90
8214;DHT22;4148;47.974;7.824;2022-08-04T11:30:50;40.40;99.90
8214;DHT22;4148;47.974;7.824;2022-08-04T11:33:22;40.30;99.90
8214;DHT22;4148;47.974;7.824;2022-08-04T11:36:00;40.10;99.90
8214;DHT22;4148;47.974;7.824;2022-08-04T11:38:36;40.00;99.90
8214;DHT22;4148;47.974;7.824;2022-08-04T11:41:09;39.80;99.90
8214;DHT22;4148;47.974;7.824;2022-08-04T11:43:43;39.80;99.90
8214;DHT22;4148;47.974;7.824;2022-08-04T11:46:32;39.90;99.90
8214;DHT22;4148;47.974;7.824;2022-08-04T11:49:06;39.60;99.90
8214;DHT22;4148;47.974;7.824;2022-08-04T11:51:35;39.50;99.90
8214;DHT22;4148;47.974;7.824;2022-08-04T11:54:05;39.40;99.90
8214;DHT22;4148;47.974;7.824;2022-08-04T11:56:33;39.40;99.90
8214;DHT22;4148;47.974;7.824;2022-08-04T11:59:05;39.40;99.90
8214;DHT22;4148;47.974;7.824;2022-08-04T12:01:41;39.10;99.90
8214;DHT22;4148;47.974;7.824;2022-08-04T12:04:17;38.80;99.90
8214;DHT22;4148;47.974;7.824;2022-08-04T12:06:50;38.50;99.90
8214;DHT22;4148;47.974;7.824;2022-08-04T12:09:47;38.30;99.90
8214;DHT22;4148;47.974;7.824;2022-08-04T12:12:24;38.20;99.90
8214;DHT22;4148;47.974;7.824;2022-08-04T12:14:58;38.30;99.90
8214;DHT22;4148;47.974;7.824;2022-08-04T12:17:35;38.20;99.90
8214;DHT22;4148;47.974;7.824;2022-08-04T12:20:22;38.10;99.90
8214;DHT22;4148;47.974;7.824;2022-08-04T12:23:14;38.20;99.90
8214;DHT22;4148;47.974;7.824;2022-08-04T12:25:52;38.20;99.90
8214;DHT22;4148;47.974;7.824;2022-08-04T12:28:25;38.20;99.90
8214;DHT22;4148;47.974;7.824;2022-08-04T12:31:28;38.00;99.90
8214;DHT22;4148;47.974;7.824;2022-08-04T12:34:00;38.00;99.90
8214;DHT22;4148;47.974;7.824;2022-08-04T12:36:36;37.90;99.90
8214;DHT22;4148;47.974;7.824;2022-08-04T12:39:10;37.80;99.90
8214;DHT22;4148;47.974;7.824;2022-08-04T12:41:44;37.90;99.90
8214;DHT22;4148;47.974;7.824;2022-08-04T12:44:16;37.90;99.90
8214;DHT22;4148;47.974;7.824;2022-08-04T12:47:06;37.80;99.90
8214;DHT22;4148;47.974;7.824;2022-08-04T12:49:58;37.50;99.90
8214;DHT22;4148;47.974;7.824;2022-08-04T12:52:30;37.30;99.90
8214;DHT22;4148;47.974;7.824;2022-08-04T12:55:24;37.20;99.90
8214;DHT22;4148;47.974;7.824;2022-08-04T12:57:54;37.10;99.90
8214;DHT22;4148;47.974;7.824;2022-08-04T13:00:25;36.90;99.90
8214;DHT22;4148;47.974;7.824;2022-08-04T13:03:03;37.00;99.90
8214;DHT22;4148;47.974;7.824;2022-08-04T13:05:38;37.00;99.90
8214;DHT22;4148;47.974;7.824;2022-08-04T13:08:07;37.00;99.90
8214;DHT22;4148;47.974;7.824;2022-08-04T13:10:37;37.00;99.90
8214;DHT22;4148;47.974;7.824;2022-08-04T13:13:14;37.00;99.90
8214;DHT22;4148;47.974;7.824;2022-08-04T13:15:42;36.90;99.90
8214;DHT22;4148;47.974;7.824;2022-08-04T13:18:22;36.90;99.90
8214;DHT22;4148;47.974;7.824;2022-08-04T13:20:56;36.80;99.90
8214;DHT22;4148;47.974;7.824;2022-08-04T13:23:50;36.80;99.90
8214;DHT22;4148;47.974;7.824;2022-08-04T13:26:48;36.80;99.90
8214;DHT22;4148;47.974;7.824;2022-08-04T13:29:40;36.70;99.90
8214;DHT22;4148;47.974;7.824;2022-08-04T13:32:29;36.60;99.90
8214;DHT22;4148;47.974;7.824;2022-08-04T13:34:59;36.50;99.90
8214;DHT22;4148;47.974;7.824;2022-08-04T13:37:32;36.60;99.90
8214;DHT22;4148;47.974;7.824;2022-08-04T13:40:02;36.60;99.90
8214;DHT22;4148;47.974;7.824;2022-08-04T13:42:33;36.40;99.90
8214;DHT22;4148;47.974;7.824;2022-08-04T13:45:06;36.30;99.90
8214;DHT22;4148;47.974;7.824;2022-08-04T13:47:37;36.30;99.90
8214;DHT22;4148;47.974;7.824;2022-08-04T13:50:12;36.30;99.90
8214;DHT22;4148;47.974;7.824;2022-08-04T13:52:42;36.30;99.90
8214;DHT22;4148;47.974;7.824;2022-08-04T13:55:18;36.30;99.90
8214;DHT22;4148;47.974;7.824;2022-08-04T13:57:50;36.30;99.90
8214;DHT22;4148;47.974;7.824;2022-08-04T14:00:21;36.30;99.90
8214;DHT22;4148;47.974;7.824;2022-08-04T14:02:59;36.20;99.90
8214;DHT22;4148;47.974;7.824;2022-08-04T14:05:29;36.20;99.90
8214;DHT22;4148;47.974;7.824;2022-08-04T14:08:20;36.10;99.90
8214;DHT22;4148;47.974;7.824;2022-08-04T14:10:55;36.00;99.90
8214;DHT22;4148;47.974;7.824;2022-08-04T14:13:30;36.10;99.90
8214;DHT22;4148;47.974;7.824;2022-08-04T14:16:16;36.10;99.90
8214;DHT22;4148;47.974;7.824;2022-08-04T14:18:44;36.10;99.90
8214;DHT22;4148;47.974;7.824;2022-08-04T14:21:14;36.00;99.90
8214;DHT22;4148;47.974;7.824;2022-08-04T14:23:48;35.90;99.90
8214;DHT22;4148;47.974;7.824;2022-08-04T14:26:19;35.80;99.90
8214;DHT22;4148;47.974;7.824;2022-08-04T14:29:09;35.90;99.90
8214;DHT22;4148;47.974;7.824;2022-08-04T14:32:01;35.80;99.90
8214;DHT22;4148;47.974;7.824;2022-08-04T14:34:38;35.80;99.90
8214;DHT22;4148;47.974;7.824;2022-08-04T14:37:08;35.70;99.90
8214;DHT22;4148;47.974;7.824;2022-08-04T14:39:45;35.60;99.90
8214;DHT22;4148;47.974;7.824;2022-08-04T14:42:41;35.60;99.90
8214;DHT22;4148;47.974;7.824;2022-08-04T14:45:09;35.60;99.90
8214;DHT22;4148;47.974;7.824;2022-08-04T14:47:41;35.50;99.90
8214;DHT22;4148;47.974;7.824;2022-08-04T14:50:18;35.50;99.90
8214;DHT22;4148;47.974;7.824;2022-08-04T14:52:46;35.50;99.90
8214;DHT22;4148;47.974;7.824;2022-08-04T14:55:16;35.40;99.90
8214;DHT22;4148;47.974;7.824;2022-08-04T14:57:44;35.40;99.90
8214;DHT22;4148;47.974;7.824;2022-08-04T15:00:34;35.40;99.90
8214;DHT22;4148;47.974;7.824;2022-08-04T15:03:06;35.40;99.90
8214;DHT22;4148;47.974;7.824;2022-08-04T15:05:35;35.40;99.90
8214;DHT22;4148;47.974;7.824;2022-08-04T15:08:23;35.40;99.90
8214;DHT22;4148;47.974;7.824;2022-08-04T15:10:57;35.30;99.90
8214;DHT22;4148;47.974;7.824;2022-08-04T15:13:25;35.30;99.90
8214;DHT22;4148;47.974;7.824;2022-08-04T15:15:53;35.20;99.90
8214;DHT22;4148;47.974;7.824;2022-08-04T15:18:35;35.20;99.90
8214;DHT22;4148;47.974;7.824;2022-08-04T15:21:06;35.20;99.90
8214;DHT22;4148;47.974;7.824;2022-08-04T15:23:34;35.20;99.90
8214;DHT22;4148;47.974;7.824;2022-08-04T15:26:08;35.30;99.90
8214;DHT22;4148;47.974;7.824;2022-08-04T15:28:38;35.30;99.90
8214;DHT22;4148;47.974;7.824;2022-08-04T15:31:08;35.20;99.90
8214;DHT22;4148;47.974;7.824;2022-08-04T15:33:58;35.20;99.90
8214;DHT22;4148;47.974;7.824;2022-08-04T15:36:33;35.20;99.90
8214;DHT22;4148;47.974;7.824;2022-08-04T15:39:05;35.10;99.90
8214;DHT22;4148;47.974;7.824;2022-08-04T15:41:46;35.10;99.90
8214;DHT22;4148;47.974;7.824;2022-08-04T15:44:47;35.10;99.90
8214;DHT22;4148;47.974;7.824;2022-08-04T15:47:16;35.20;99.90
8214;DHT22;4148;47.974;7.824;2022-08-04T15:50:02;35.10;99.90
8214;DHT22;4148;47.974;7.824;2022-08-04T15:53:03;35.10;99.90
8214;DHT22;4148;47.974;7.824;2022-08-04T15:55:40;35.10;99.90
8214;DHT22;4148;47.974;7.824;2022-08-04T15:58:10;35.00;99.90
8214;DHT22;4148;47.974;7.824;2022-08-04T16:01:12;35.00;99.90
8214;DHT22;4148;47.974;7.824;2022-08-04T16:03:46;35.00;99.90
8214;DHT22;4148;47.974;7.824;2022-08-04T16:06:48;35.00;99.90
8214;DHT22;4148;47.974;7.824;2022-08-04T16:09:21;35.00;99.90
8214;DHT22;4148;47.974;7.824;2022-08-04T16:15:36;35.10;99.90
8214;DHT22;4148;47.974;7.824;2022-08-04T16:18:04;35.00;99.90
8214;DHT22;4148;47.974;7.824;2022-08-04T16:20:44;35.00;99.90
8214;DHT22;4148;47.974;7.824;2022-08-04T16:23:44;34.90;99.90
8214;DHT22;4148;47.974;7.824;2022-08-04T16:26:44;34.80;99.90
8214;DHT22;4148;47.974;7.824;2022-08-04T16:29:29;34.80;99.90
8214;DHT22;4148;47.974;7.824;2022-08-04T16:32:16;34.80;99.90
8214;DHT22;4148;47.974;7.824;2022-08-04T16:34:55;34.80;99.90
8214;DHT22;4148;47.974;7.824;2022-08-04T16:37:30;34.80;99.90
8214;DHT22;4148;47.974;7.824;2022-08-04T16:40:31;34.90;99.90
8214;DHT22;4148;47.974;7.824;2022-08-04T16:43:07;34.90;99.90
8214;DHT22;4148;47.974;7.824;2022-08-04T16:45:40;34.90;99.90
8214;DHT22;4148;47.974;7.824;2022-08-04T16:48:09;35.00;99.90
8214;DHT22;4148;47.974;7.824;2022-08-04T16:50:52;35.10;99.90
8214;DHT22;4148;47.974;7.824;2022-08-04T16:53:22;35.10;99.90
8214;DHT22;4148;47.974;7.824;2022-08-04T16:56:13;35.00;99.90
8214;DHT22;4148;47.974;7.824;2022-08-04T16:58:44;34.90;99.90
8214;DHT22;4148;47.974;7.824;2022-08-04T17:01:20;34.80;99.90
8214;DHT22;4148;47.974;7.824;2022-08-04T17:04:00;34.70;99.90
8214;DHT22;4148;47.974;7.824;2022-08-04T17:06:34;34.60;99.90
8214;DHT22;4148;47.974;7.824;2022-08-04T17:09:04;34.50;99.90
8214;DHT22;4148;47.974;7.824;2022-08-04T17:11:33;34.40;99.90
8214;DHT22;4148;47.974;7.824;2022-08-04T17:14:01;34.30;99.90
8214;DHT22;4148;47.974;7.824;2022-08-04T17:16:33;34.20;99.90
8214;DHT22;4148;47.974;7.824;2022-08-04T17:19:01;34.20;99.90
8214;DHT22;4148;47.974;7.824;2022-08-04T17:21:32;34.10;99.90
8214;DHT22;4148;47.974;7.824;2022-08-04T17:24:02;34.10;99.90
8214;DHT22;4148;47.974;7.824;2022-08-04T17:26:45;34.10;99.90
8214;DHT22;4148;47.974;7.824;2022-08-04T17:29:21;34.10;99.90
8214;DHT22;4148;47.974;7.824;2022-08-04T17:32:14;34.10;99.90